createdAt,value
2022-07-28T16:01:45.913Z,17.60
2022-07-28T16:03:17.874Z,16.20
2022-07-28T16:04:53.521Z,15.80
2022-07-28T16:06:27.029Z,15.60
2022-07-28T16:07:58.742Z,16.00
2022-07-28T16:09:46.434Z,16.40
2022-07-28T16:11:18.605Z,17.60
2022-07-28T16:12:51.564Z,14.80
2022-07-28T16:14:23.499Z,16.80
2022-07-28T16:15:55.249Z,17.20
2022-07-28T16:17:27.131Z,17.40
2022-07-28T16:18:59.273Z,16.60
2022-07-28T16:20:32.268Z,18.20
2022-07-28T16:22:04.067Z,20.20
2022-07-28T16:23:35.929Z,20.20
2022-07-28T16:25:08.412Z,20.60
2022-07-28T16:26:41.569Z,22.20
2022-07-28T16:28:14.480Z,19.80
2022-07-28T16:29:50.154Z,20.40
2022-07-28T16:31:22.164Z,22.80
2022-07-28T16:32:54.863Z,23.20
2022-07-28T16:34:26.884Z,23.40
2022-07-28T16:35:58.665Z,23.20
2022-07-28T16:37:30.498Z,24.20
2022-07-28T16:39:03.726Z,24.20
2022-07-28T16:40:35.547Z,24.60
2022-07-28T16:42:09.034Z,23.60
2022-07-28T16:43:44.703Z,22.40
2022-07-28T16:45:17.025Z,24.20
2022-07-28T16:46:48.793Z,23.00
2022-07-28T16:48:20.863Z,24.20
2022-07-28T16:49:52.803Z,24.00
2022-07-28T16:51:24.625Z,22.60
2022-07-28T16:52:56.404Z,23.00
2022-07-28T16:54:28.212Z,21.20
2022-07-28T16:55:59.986Z,23.40
2022-07-28T16:57:31.772Z,22.80
2022-07-28T16:59:03.509Z,22.00
2022-07-28T17:00:35.325Z,24.00
2022-07-28T17:02:07.452Z,23.00
2022-07-28T17:03:39.463Z,22.40
2022-07-28T17:05:11.957Z,23.00
2022-07-28T17:06:43.830Z,23.00
2022-07-28T17:08:15.601Z,23.00
2022-07-28T17:09:47.397Z,23.80
2022-07-28T17:11:20.104Z,22.20
2022-07-28T17:12:53.514Z,24.00
2022-07-28T17:14:26.673Z,23.00
2022-07-28T17:16:00.539Z,21.40
2022-07-28T17:17:35.215Z,21.60
2022-07-28T17:19:08.926Z,23.60
2022-07-28T17:20:43.807Z,23.20
2022-07-28T17:22:17.724Z,20.00
2022-07-28T17:23:50.653Z,22.60
2022-07-28T17:27:37.662Z,23.20
2022-07-28T17:29:14.039Z,22.40
2022-07-28T17:30:48.333Z,23.00
2022-07-28T17:32:21.464Z,23.80
2022-07-28T17:33:54.859Z,24.00
2022-07-28T17:35:34.226Z,22.20
2022-07-28T17:37:08.426Z,20.80
2022-07-28T17:38:42.955Z,14.60
2022-07-28T17:40:17.570Z,21.40
2022-07-28T17:41:54.442Z,20.00
2022-07-28T17:43:34.567Z,24.00
2022-07-28T17:45:09.200Z,25.60
2022-07-28T17:46:41.668Z,22.00
2022-07-28T17:48:14.931Z,23.20
2022-07-28T17:49:47.143Z,26.60
2022-07-28T17:51:18.961Z,29.20
2022-07-28T17:52:50.798Z,30.60
2022-07-28T17:54:25.069Z,30.00
2022-07-28T17:56:01.151Z,31.20
2022-07-28T17:57:37.649Z,30.00
2022-07-28T17:59:11.308Z,37.40
2022-07-28T18:00:44.434Z,33.20
2022-07-28T18:02:16.392Z,34.20
2022-07-28T18:03:57.006Z,35.40
2022-07-28T18:05:33.361Z,35.00
2022-07-28T18:07:06.661Z,36.20
2022-07-28T18:08:38.494Z,36.60
2022-07-28T18:10:10.272Z,38.60
2022-07-28T18:11:56.714Z,38.40
2022-07-28T18:13:30.345Z,38.60
2022-07-28T18:15:02.482Z,39.20
2022-07-28T18:16:34.618Z,37.60
2022-07-28T18:18:06.495Z,38.40
2022-07-28T18:19:40.918Z,32.60
2022-07-28T18:21:16.942Z,33.00
2022-07-28T18:22:48.651Z,34.20
2022-07-28T18:24:22.270Z,23.00
2022-07-28T18:25:54.538Z,26.80
2022-07-28T18:27:27.064Z,31.20
2022-07-28T18:28:58.754Z,30.20
2022-07-28T18:30:31.985Z,29.00
2022-07-28T18:32:03.934Z,31.00
2022-07-28T18:33:35.737Z,26.80
2022-07-28T18:35:07.970Z,22.00
2022-07-28T18:36:39.794Z,21.80
2022-07-28T18:38:11.626Z,23.00
2022-07-28T18:39:43.519Z,23.60
2022-07-28T18:41:15.222Z,22.00
2022-07-28T18:42:47.880Z,23.00
2022-07-28T18:44:20.487Z,22.60
2022-07-28T18:45:53.743Z,23.00
2022-07-28T18:47:28.027Z,23.20
2022-07-28T18:48:59.967Z,24.00
2022-07-28T18:50:31.974Z,23.00
2022-07-28T18:52:04.092Z,21.60
2022-07-28T18:53:36.362Z,20.00
2022-07-28T18:55:08.354Z,20.40
2022-07-28T18:56:40.131Z,21.00
2022-07-28T18:58:12.027Z,22.00
2022-07-28T18:59:47.661Z,20.20
2022-07-28T19:01:22.050Z,19.60
2022-07-28T19:02:55.383Z,19.20
2022-07-28T19:04:27.240Z,21.00
2022-07-28T19:05:58.958Z,17.60
2022-07-28T19:07:30.680Z,19.60
2022-07-28T19:09:02.504Z,20.00
2022-07-28T19:10:34.870Z,19.00
2022-07-28T19:12:06.990Z,20.00
2022-07-28T19:13:38.789Z,19.40
2022-07-28T19:15:10.673Z,20.00
2022-07-28T19:16:42.678Z,20.00
2022-07-28T19:18:15.167Z,18.40
2022-07-28T19:19:46.894Z,19.60
2022-07-28T19:21:18.668Z,22.00
2022-07-28T19:22:50.424Z,19.80
2022-07-28T19:24:22.256Z,21.20
2022-07-28T19:25:54.314Z,20.80
2022-07-28T19:27:26.096Z,22.00
2022-07-28T19:29:02.698Z,20.00
2022-07-28T19:30:35.109Z,13.80
2022-07-28T19:32:07.875Z,13.20
2022-07-28T19:33:43.884Z,19.60
2022-07-28T19:35:16.286Z,17.00
2022-07-28T19:36:48.340Z,15.00
2022-07-28T19:38:20.332Z,13.80
2022-07-28T19:39:52.323Z,15.60
2022-07-28T19:41:24.036Z,16.00
2022-07-28T19:42:56.820Z,17.20
2022-07-28T19:44:30.234Z,19.20
2022-07-28T19:46:04.341Z,22.00
2022-07-28T19:47:36.922Z,20.00
2022-07-28T19:49:09.313Z,21.20
2022-07-28T19:50:49.986Z,21.60
2022-07-28T19:52:24.061Z,25.00
2022-07-28T19:53:59.686Z,23.00
2022-07-28T19:55:35.051Z,21.60
2022-07-28T19:57:12.170Z,22.80
2022-07-28T19:58:45.328Z,23.00
2022-07-28T20:00:19.863Z,22.80
2022-07-28T20:01:51.970Z,23.20
2022-07-28T20:04:02.196Z,23.40
2022-07-28T20:05:15.720Z,25.80
2022-07-28T20:06:50.887Z,23.20
2022-07-28T20:08:26.860Z,23.20
2022-07-28T20:10:00.296Z,23.20
2022-07-28T20:11:33.018Z,24.40
2022-07-28T20:13:05.080Z,23.60
2022-07-28T20:14:37.003Z,23.40
2022-07-28T20:16:08.860Z,22.60
2022-07-28T20:17:41.464Z,21.80
2022-07-28T20:19:13.208Z,24.40
2022-07-28T20:20:46.466Z,22.00
2022-07-28T20:22:18.277Z,23.60
2022-07-28T20:23:52.411Z,22.00
2022-07-28T20:25:24.340Z,24.40
2022-07-28T20:26:56.092Z,22.60
2022-07-28T20:28:27.871Z,24.00
2022-07-28T20:29:59.850Z,22.80
2022-07-28T20:31:32.075Z,22.00
2022-07-28T20:33:06.036Z,22.60
2022-07-28T20:34:38.647Z,20.00
2022-07-28T20:36:10.515Z,20.40
2022-07-28T20:37:42.351Z,21.60
2022-07-28T20:39:42.097Z,22.40
2022-07-28T20:41:08.889Z,19.80
2022-07-28T20:42:40.666Z,21.20
2022-07-28T20:44:28.167Z,18.40
2022-07-28T20:46:01.454Z,23.40
2022-07-28T20:47:33.892Z,24.80
2022-07-28T20:49:05.943Z,23.60
2022-07-28T20:50:38.153Z,23.80
2022-07-28T20:52:10.438Z,22.40
2022-07-28T20:53:42.497Z,22.80
2022-07-28T20:55:14.376Z,23.40
2022-07-28T20:56:46.440Z,21.20
2022-07-28T20:58:18.272Z,22.00
2022-07-28T20:59:52.136Z,23.20
2022-07-28T21:01:26.165Z,23.40
2022-07-28T21:02:58.167Z,28.80
2022-07-28T21:04:29.977Z,30.00
2022-07-28T21:06:02.684Z,28.40
2022-07-28T21:08:04.949Z,27.60
2022-07-28T21:09:26.554Z,26.80
2022-07-28T21:10:58.307Z,25.20
2022-07-28T21:12:30.052Z,23.80
2022-07-28T21:14:01.822Z,27.40
2022-07-28T21:15:33.631Z,25.60
2022-07-28T21:17:05.607Z,24.40
2022-07-28T21:18:37.423Z,25.40
2022-07-28T21:20:09.934Z,23.60
2022-07-28T21:21:42.186Z,24.20
2022-07-28T21:23:13.949Z,25.00
2022-07-28T21:24:45.743Z,25.40
2022-07-28T21:26:17.885Z,23.40
2022-07-28T21:28:08.403Z,23.20
2022-07-28T21:29:40.246Z,23.20
2022-07-28T21:31:12.283Z,23.00
2022-07-28T21:32:44.140Z,24.20
2022-07-28T21:34:16.935Z,23.60
2022-07-28T21:35:49.137Z,23.20
2022-07-28T21:37:21.027Z,20.20
2022-07-28T21:38:52.943Z,22.20
2022-07-28T21:40:24.777Z,22.00
2022-07-28T21:41:56.573Z,22.60
2022-07-28T21:43:28.632Z,20.00
2022-07-28T21:45:00.449Z,24.60
2022-07-28T21:46:32.199Z,26.00
2022-07-28T21:48:03.989Z,25.00
2022-07-28T21:49:35.765Z,24.20
2022-07-28T21:51:16.402Z,24.60
2022-07-28T21:52:51.115Z,24.00
2022-07-28T21:54:22.961Z,27.20
2022-07-28T21:55:54.920Z,25.60
2022-07-28T21:57:26.812Z,26.80
2022-07-28T21:58:58.654Z,22.00
2022-07-28T22:00:30.943Z,24.20
2022-07-28T22:02:03.520Z,22.40
2022-07-28T22:03:37.318Z,24.40
2022-07-28T22:05:09.793Z,21.00
2022-07-28T22:06:41.635Z,23.20
2022-07-28T22:08:18.199Z,21.60
2022-07-28T22:09:49.984Z,23.00
2022-07-28T22:11:22.148Z,22.00
2022-07-28T22:12:54.364Z,23.20
2022-07-28T22:14:32.117Z,22.80
2022-07-28T22:16:04.052Z,22.00
2022-07-28T22:17:35.874Z,21.60
2022-07-28T22:19:07.686Z,20.20
2022-07-28T22:20:41.284Z,20.80
2022-07-28T22:22:13.347Z,18.60
2022-07-28T22:23:45.179Z,19.20
2022-07-28T22:25:17.169Z,20.00
2022-07-28T22:26:49.395Z,20.60
2022-07-28T22:28:29.385Z,19.80
2022-07-28T22:30:02.996Z,19.00
2022-07-28T22:31:34.891Z,17.40
2022-07-28T22:33:06.860Z,20.00
2022-07-28T22:34:38.631Z,17.40
